sensor_id;sensor_type;location;lat;lon;timestamp;P1;durP1;ratioP1;P2;durP2;ratioP2
4122;SDS011;2075;51.062;6.920;2023-07-20T00:02:21;9.97;;;4.43;;
4122;SDS011;2075;51.062;6.920;2023-07-20T00:05:06;6.90;;;3.87;;
4122;SDS011;2075;51.062;6.920;2023-07-20T00:07:51;6.77;;;3.93;;
4122;SDS011;2075;51.062;6.920;2023-07-20T00:10:37;11.63;;;5.03;;
4122;SDS011;2075;51.062;6.920;2023-07-20T00:13:23;6.50;;;4.03;;
4122;SDS011;2075;51.062;6.920;2023-07-20T00:16:09;11.90;;;4.60;;
4122;SDS011;2075;51.062;6.920;2023-07-20T00:18:54;8.37;;;4.23;;
4122;SDS011;2075;51.062;6.920;2023-07-20T00:21:40;4.93;;;3.67;;
4122;SDS011;2075;51.062;6.920;2023-07-20T00:24:26;6.67;;;4.10;;
4122;SDS011;2075;51.062;6.920;2023-07-20T00:27:12;4.80;;;4.30;;
4122;SDS011;2075;51.062;6.920;2023-07-20T00:29:58;7.33;;;4.43;;
4122;SDS011;2075;51.062;6.920;2023-07-20T00:32:43;5.50;;;4.27;;
4122;SDS011;2075;51.062;6.920;2023-07-20T00:35:29;7.17;;;4.57;;
4122;SDS011;2075;51.062;6.920;2023-07-20T00:38:14;6.90;;;4.33;;
4122;SDS011;2075;51.062;6.920;2023-07-20T00:41:00;4.47;;;3.80;;
4122;SDS011;2075;51.062;6.920;2023-07-20T00:43:45;10.60;;;4.00;;
4122;SDS011;2075;51.062;6.920;2023-07-20T00:46:32;8.43;;;4.20;;
4122;SDS011;2075;51.062;6.920;2023-07-20T00:49:18;5.27;;;4.17;;
4122;SDS011;2075;51.062;6.920;2023-07-20T00:52:06;9.93;;;4.10;;
4122;SDS011;2075;51.062;6.920;2023-07-20T00:54:53;10.50;;;4.83;;
4122;SDS011;2075;51.062;6.920;2023-07-20T00:57:40;5.60;;;4.50;;
4122;SDS011;2075;51.062;6.920;2023-07-20T01:00:26;7.93;;;4.40;;
4122;SDS011;2075;51.062;6.920;2023-07-20T01:03:13;6.47;;;4.20;;
4122;SDS011;2075;51.062;6.920;2023-07-20T01:06:00;7.10;;;3.93;;
4122;SDS011;2075;51.062;6.920;2023-07-20T01:09:02;17.73;;;4.53;;
4122;SDS011;2075;51.062;6.920;2023-07-20T01:12:01;4.73;;;3.87;;
4122;SDS011;2075;51.062;6.920;2023-07-20T01:14:52;4.10;;;3.70;;
4122;SDS011;2075;51.062;6.920;2023-07-20T01:17:38;7.33;;;3.97;;
4122;SDS011;2075;51.062;6.920;2023-07-20T01:20:25;9.33;;;4.10;;
4122;SDS011;2075;51.062;6.920;2023-07-20T01:23:22;7.23;;;4.20;;
4122;SDS011;2075;51.062;6.920;2023-07-20T01:26:27;8.53;;;4.63;;
4122;SDS011;2075;51.062;6.920;2023-07-20T01:29:27;6.43;;;4.70;;
4122;SDS011;2075;51.062;6.920;2023-07-20T01:32:29;8.40;;;4.60;;
4122;SDS011;2075;51.062;6.920;2023-07-20T01:35:16;7.40;;;4.47;;
4122;SDS011;2075;51.062;6.920;2023-07-20T01:38:04;11.00;;;4.90;;
4122;SDS011;2075;51.062;6.920;2023-07-20T01:40:52;6.10;;;4.60;;
4122;SDS011;2075;51.062;6.920;2023-07-20T01:43:38;6.50;;;4.07;;
4122;SDS011;2075;51.062;6.920;2023-07-20T01:46:23;6.40;;;4.03;;
4122;SDS011;2075;51.062;6.920;2023-07-20T01:49:10;7.87;;;4.37;;
4122;SDS011;2075;51.062;6.920;2023-07-20T01:51:56;5.87;;;4.10;;
4122;SDS011;2075;51.062;6.920;2023-07-20T01:54:41;7.50;;;4.23;;
4122;SDS011;2075;51.062;6.920;2023-07-20T01:57:26;8.13;;;3.83;;
4122;SDS011;2075;51.062;6.920;2023-07-20T02:00:12;10.27;;;5.40;;
4122;SDS011;2075;51.062;6.920;2023-07-20T02:03:00;8.00;;;4.00;;
4122;SDS011;2075;51.062;6.920;2023-07-20T02:05:47;7.03;;;4.47;;
4122;SDS011;2075;51.062;6.920;2023-07-20T02:08:33;6.63;;;4.00;;
4122;SDS011;2075;51.062;6.920;2023-07-20T02:11:18;5.80;;;4.40;;
4122;SDS011;2075;51.062;6.920;2023-07-20T02:14:03;5.33;;;3.80;;
4122;SDS011;2075;51.062;6.920;2023-07-20T02:16:49;7.87;;;4.10;;
4122;SDS011;2075;51.062;6.920;2023-07-20T02:19:37;11.23;;;4.83;;
4122;SDS011;2075;51.062;6.920;2023-07-20T02:22:25;7.00;;;3.77;;
4122;SDS011;2075;51.062;6.920;2023-07-20T02:25:10;5.80;;;4.30;;
4122;SDS011;2075;51.062;6.920;2023-07-20T02:27:56;6.77;;;4.77;;
4122;SDS011;2075;51.062;6.920;2023-07-20T02:30:42;6.53;;;4.50;;
4122;SDS011;2075;51.062;6.920;2023-07-20T02:33:27;6.23;;;4.60;;
4122;SDS011;2075;51.062;6.920;2023-07-20T02:36:12;5.23;;;4.03;;
4122;SDS011;2075;51.062;6.920;2023-07-20T02:38:59;4.50;;;4.10;;
4122;SDS011;2075;51.062;6.920;2023-07-20T02:41:46;5.00;;;4.20;;
4122;SDS011;2075;51.062;6.920;2023-07-20T02:44:31;6.57;;;4.30;;
4122;SDS011;2075;51.062;6.920;2023-07-20T02:47:16;6.20;;;4.10;;
4122;SDS011;2075;51.062;6.920;2023-07-20T02:50:02;8.27;;;4.30;;
4122;SDS011;2075;51.062;6.920;2023-07-20T02:52:49;7.73;;;4.83;;
4122;SDS011;2075;51.062;6.920;2023-07-20T02:55:35;4.60;;;4.10;;
4122;SDS011;2075;51.062;6.920;2023-07-20T02:58:21;5.77;;;4.33;;
4122;SDS011;2075;51.062;6.920;2023-07-20T03:01:06;4.43;;;4.03;;
4122;SDS011;2075;51.062;6.920;2023-07-20T03:03:51;6.03;;;4.00;;
4122;SDS011;2075;51.062;6.920;2023-07-20T03:06:37;6.47;;;4.20;;
4122;SDS011;2075;51.062;6.920;2023-07-20T03:09:22;7.60;;;4.30;;
4122;SDS011;2075;51.062;6.920;2023-07-20T03:12:10;8.30;;;4.43;;
4122;SDS011;2075;51.062;6.920;2023-07-20T03:14:55;5.83;;;4.00;;
4122;SDS011;2075;51.062;6.920;2023-07-20T03:17:41;4.73;;;4.30;;
4122;SDS011;2075;51.062;6.920;2023-07-20T03:20:26;6.60;;;4.00;;
4122;SDS011;2075;51.062;6.920;2023-07-20T03:23:12;6.90;;;4.90;;
4122;SDS011;2075;51.062;6.920;2023-07-20T03:25:57;5.50;;;4.10;;
4122;SDS011;2075;51.062;6.920;2023-07-20T03:28:45;9.60;;;4.80;;
4122;SDS011;2075;51.062;6.920;2023-07-20T03:31:31;6.40;;;4.63;;
4122;SDS011;2075;51.062;6.920;2023-07-20T03:34:16;6.00;;;4.40;;
4122;SDS011;2075;51.062;6.920;2023-07-20T03:37:02;10.07;;;5.13;;
4122;SDS011;2075;51.062;6.920;2023-07-20T03:39:49;9.00;;;4.67;;
4122;SDS011;2075;51.062;6.920;2023-07-20T03:42:34;6.40;;;4.20;;
4122;SDS011;2075;51.062;6.920;2023-07-20T03:45:23;7.30;;;4.87;;
4122;SDS011;2075;51.062;6.920;2023-07-20T03:48:08;7.60;;;4.53;;
4122;SDS011;2075;51.062;6.920;2023-07-20T03:50:54;6.40;;;4.80;;
4122;SDS011;2075;51.062;6.920;2023-07-20T03:53:41;9.47;;;4.90;;
4122;SDS011;2075;51.062;6.920;2023-07-20T03:56:29;5.03;;;4.40;;
4122;SDS011;2075;51.062;6.920;2023-07-20T03:59:18;12.67;;;6.73;;
4122;SDS011;2075;51.062;6.920;2023-07-20T04:02:05;8.87;;;5.17;;
4122;SDS011;2075;51.062;6.920;2023-07-20T04:04:50;10.93;;;4.87;;
4122;SDS011;2075;51.062;6.920;2023-07-20T04:07:36;10.30;;;5.20;;
4122;SDS011;2075;51.062;6.920;2023-07-20T04:10:21;9.10;;;4.63;;
4122;SDS011;2075;51.062;6.920;2023-07-20T04:13:10;14.23;;;4.40;;
4122;SDS011;2075;51.062;6.920;2023-07-20T04:15:55;7.70;;;4.47;;
4122;SDS011;2075;51.062;6.920;2023-07-20T04:18:42;12.33;;;6.07;;
4122;SDS011;2075;51.062;6.920;2023-07-20T04:21:33;7.97;;;5.70;;
4122;SDS011;2075;51.062;6.920;2023-07-20T04:24:18;10.93;;;5.30;;
4122;SDS011;2075;51.062;6.920;2023-07-20T04:27:04;5.20;;;4.60;;
4122;SDS011;2075;51.062;6.920;2023-07-20T04:29:49;5.80;;;4.40;;
4122;SDS011;2075;51.062;6.920;2023-07-20T04:32:35;12.03;;;5.00;;
4122;SDS011;2075;51.062;6.920;2023-07-20T04:38:34;9.00;;;4.90;;
4122;SDS011;2075;51.062;6.920;2023-07-20T04:41:39;18.47;;;7.93;;
4122;SDS011;2075;51.062;6.920;2023-07-20T04:44:27;18.40;;;7.57;;
4122;SDS011;2075;51.062;6.920;2023-07-20T04:47:13;13.40;;;5.50;;
4122;SDS011;2075;51.062;6.920;2023-07-20T04:49:58;10.50;;;5.47;;
4122;SDS011;2075;51.062;6.920;2023-07-20T04:52:46;8.67;;;5.00;;
4122;SDS011;2075;51.062;6.920;2023-07-20T04:55:36;9.70;;;4.97;;
4122;SDS011;2075;51.062;6.920;2023-07-20T04:58:26;11.00;;;5.57;;
4122;SDS011;2075;51.062;6.920;2023-07-20T05:01:13;7.23;;;4.60;;
4122;SDS011;2075;51.062;6.920;2023-07-20T05:03:59;10.70;;;5.13;;
4122;SDS011;2075;51.062;6.920;2023-07-20T05:06:44;12.10;;;4.90;;
4122;SDS011;2075;51.062;6.920;2023-07-20T05:09:31;7.80;;;5.00;;
4122;SDS011;2075;51.062;6.920;2023-07-20T05:12:17;12.80;;;6.00;;
4122;SDS011;2075;51.062;6.920;2023-07-20T05:15:02;10.17;;;4.70;;
4122;SDS011;2075;51.062;6.920;2023-07-20T05:17:49;7.63;;;4.80;;
4122;SDS011;2075;51.062;6.920;2023-07-20T05:20:41;8.83;;;5.30;;
4122;SDS011;2075;51.062;6.920;2023-07-20T05:23:26;14.30;;;8.17;;
4122;SDS011;2075;51.062;6.920;2023-07-20T05:26:13;13.93;;;6.50;;
4122;SDS011;2075;51.062;6.920;2023-07-20T05:28:59;11.77;;;5.77;;
4122;SDS011;2075;51.062;6.920;2023-07-20T05:31:44;10.60;;;6.80;;
4122;SDS011;2075;51.062;6.920;2023-07-20T05:34:29;12.80;;;7.87;;
4122;SDS011;2075;51.062;6.920;2023-07-20T05:37:15;11.63;;;7.50;;
4122;SDS011;2075;51.062;6.920;2023-07-20T05:40:00;14.63;;;7.80;;
4122;SDS011;2075;51.062;6.920;2023-07-20T05:42:48;9.37;;;8.00;;
4122;SDS011;2075;51.062;6.920;2023-07-20T05:45:35;11.53;;;7.80;;
4122;SDS011;2075;51.062;6.920;2023-07-20T05:48:23;10.43;;;8.60;;
4122;SDS011;2075;51.062;6.920;2023-07-20T05:51:08;11.33;;;9.30;;
4122;SDS011;2075;51.062;6.920;2023-07-20T05:53:54;15.87;;;10.10;;
4122;SDS011;2075;51.062;6.920;2023-07-20T05:56:39;10.83;;;9.13;;
4122;SDS011;2075;51.062;6.920;2023-07-20T05:59:28;13.30;;;8.30;;
4122;SDS011;2075;51.062;6.920;2023-07-20T06:02:14;14.13;;;9.30;;
4122;SDS011;2075;51.062;6.920;2023-07-20T06:04:59;15.23;;;8.47;;
4122;SDS011;2075;51.062;6.920;2023-07-20T06:07:45;13.00;;;8.27;;
4122;SDS011;2075;51.062;6.920;2023-07-20T06:10:31;11.83;;;8.50;;
4122;SDS011;2075;51.062;6.920;2023-07-20T06:13:16;19.27;;;9.03;;
4122;SDS011;2075;51.062;6.920;2023-07-20T06:16:03;11.87;;;9.53;;
4122;SDS011;2075;51.062;6.920;2023-07-20T06:18:49;14.90;;;10.00;;
4122;SDS011;2075;51.062;6.920;2023-07-20T06:21:35;14.90;;;10.40;;
4122;SDS011;2075;51.062;6.920;2023-07-20T06:35:19;12.33;;;10.00;;
4122;SDS011;2075;51.062;6.920;2023-07-20T06:46:16;14.83;;;10.33;;
4122;SDS011;2075;51.062;6.920;2023-07-20T06:49:23;11.00;;;9.60;;
4122;SDS011;2075;51.062;6.920;2023-07-20T06:52:26;18.03;;;9.27;;
4122;SDS011;2075;51.062;6.920;2023-07-20T06:57:57;11.97;;;9.20;;
4122;SDS011;2075;51.062;6.920;2023-07-20T07:00:42;10.03;;;8.93;;
4122;SDS011;2075;51.062;6.920;2023-07-20T07:03:31;13.83;;;9.37;;
4122;SDS011;2075;51.062;6.920;2023-07-20T07:06:16;9.17;;;8.27;;
4122;SDS011;2075;51.062;6.920;2023-07-20T07:09:03;12.27;;;9.63;;
4122;SDS011;2075;51.062;6.920;2023-07-20T07:11:59;10.20;;;8.40;;
4122;SDS011;2075;51.062;6.920;2023-07-20T07:15:12;12.80;;;8.60;;
4122;SDS011;2075;51.062;6.920;2023-07-20T07:17:58;8.80;;;7.77;;
4122;SDS011;2075;51.062;6.920;2023-07-20T07:20:53;10.80;;;7.83;;
4122;SDS011;2075;51.062;6.920;2023-07-20T07:23:47;9.53;;;7.60;;
4122;SDS011;2075;51.062;6.920;2023-07-20T07:26:38;10.93;;;7.30;;
4122;SDS011;2075;51.062;6.920;2023-07-20T07:29:27;13.10;;;9.00;;
4122;SDS011;2075;51.062;6.920;2023-07-20T07:32:13;14.20;;;8.70;;
4122;SDS011;2075;51.062;6.920;2023-07-20T07:35:08;12.77;;;7.70;;
4122;SDS011;2075;51.062;6.920;2023-07-20T07:37:53;9.07;;;7.33;;
4122;SDS011;2075;51.062;6.920;2023-07-20T07:40:40;8.07;;;7.27;;
4122;SDS011;2075;51.062;6.920;2023-07-20T07:43:29;7.27;;;6.57;;
4122;SDS011;2075;51.062;6.920;2023-07-20T07:46:15;9.40;;;6.00;;
4122;SDS011;2075;51.062;6.920;2023-07-20T07:49:01;10.93;;;5.43;;
4122;SDS011;2075;51.062;6.920;2023-07-20T07:51:48;8.27;;;5.20;;
4122;SDS011;2075;51.062;6.920;2023-07-20T07:57:35;6.83;;;4.80;;
4122;SDS011;2075;51.062;6.920;2023-07-20T08:05:56;5.63;;;4.17;;
4122;SDS011;2075;51.062;6.920;2023-07-20T08:08:52;2.93;;;2.60;;
4122;SDS011;2075;51.062;6.920;2023-07-20T08:11:43;2.10;;;2.00;;
4122;SDS011;2075;51.062;6.920;2023-07-20T08:14:29;2.30;;;2.20;;
4122;SDS011;2075;51.062;6.920;2023-07-20T08:17:16;3.10;;;2.90;;
4122;SDS011;2075;51.062;6.920;2023-07-20T08:20:02;3.43;;;3.23;;
4122;SDS011;2075;51.062;6.920;2023-07-20T08:22:49;3.33;;;2.97;;
4122;SDS011;2075;51.062;6.920;2023-07-20T08:25:35;3.27;;;3.13;;
4122;SDS011;2075;51.062;6.920;2023-07-20T08:28:23;2.10;;;2.00;;
4122;SDS011;2075;51.062;6.920;2023-07-20T08:31:16;2.03;;;1.90;;
4122;SDS011;2075;51.062;6.920;2023-07-20T08:34:02;2.07;;;1.87;;
4122;SDS011;2075;51.062;6.920;2023-07-20T08:36:47;2.40;;;2.20;;
4122;SDS011;2075;51.062;6.920;2023-07-20T08:39:37;2.60;;;2.40;;
4122;SDS011;2075;51.062;6.920;2023-07-20T08:42:22;2.30;;;2.20;;
4122;SDS011;2075;51.062;6.920;2023-07-20T08:45:08;2.40;;;1.90;;
4122;SDS011;2075;51.062;6.920;2023-07-20T08:47:54;1.30;;;1.30;;
4122;SDS011;2075;51.062;6.920;2023-07-20T08:50:41;1.80;;;1.70;;
4122;SDS011;2075;51.062;6.920;2023-07-20T08:53:27;3.00;;;1.70;;
4122;SDS011;2075;51.062;6.920;2023-07-20T08:56:16;4.13;;;2.00;;
4122;SDS011;2075;51.062;6.920;2023-07-20T08:59:02;2.30;;;2.20;;
4122;SDS011;2075;51.062;6.920;2023-07-20T09:01:48;2.00;;;1.90;;
4122;SDS011;2075;51.062;6.920;2023-07-20T09:04:34;3.20;;;2.83;;
4122;SDS011;2075;51.062;6.920;2023-07-20T09:07:19;2.27;;;2.10;;
4122;SDS011;2075;51.062;6.920;2023-07-20T09:10:05;2.07;;;1.97;;
4122;SDS011;2075;51.062;6.920;2023-07-20T09:12:53;2.73;;;2.53;;
4122;SDS011;2075;51.062;6.920;2023-07-20T09:15:39;1.97;;;1.87;;
4122;SDS011;2075;51.062;6.920;2023-07-20T09:18:31;1.97;;;1.87;;
4122;SDS011;2075;51.062;6.920;2023-07-20T09:21:18;3.27;;;3.07;;
4122;SDS011;2075;51.062;6.920;2023-07-20T09:24:05;2.67;;;2.47;;
4122;SDS011;2075;51.062;6.920;2023-07-20T09:26:52;1.80;;;1.70;;
4122;SDS011;2075;51.062;6.920;2023-07-20T09:29:48;1.73;;;1.63;;
4122;SDS011;2075;51.062;6.920;2023-07-20T09:32:38;1.63;;;1.53;;
4122;SDS011;2075;51.062;6.920;2023-07-20T09:35:24;1.87;;;1.77;;
4122;SDS011;2075;51.062;6.920;2023-07-20T09:38:10;3.77;;;3.47;;
4122;SDS011;2075;51.062;6.920;2023-07-20T09:40:57;3.20;;;3.00;;
4122;SDS011;2075;51.062;6.920;2023-07-20T09:43:43;2.60;;;2.40;;
4122;SDS011;2075;51.062;6.920;2023-07-20T09:46:42;2.20;;;2.00;;
4122;SDS011;2075;51.062;6.920;2023-07-20T09:49:28;2.40;;;2.30;;
4122;SDS011;2075;51.062;6.920;2023-07-20T09:52:14;2.47;;;2.30;;
4122;SDS011;2075;51.062;6.920;2023-07-20T09:55:04;1.67;;;1.60;;
4122;SDS011;2075;51.062;6.920;2023-07-20T09:57:51;6.43;;;2.40;;
4122;SDS011;2075;51.062;6.920;2023-07-20T10:00:40;6.00;;;1.90;;
4122;SDS011;2075;51.062;6.920;2023-07-20T10:03:43;3.00;;;2.03;;
4122;SDS011;2075;51.062;6.920;2023-07-20T10:06:32;1.70;;;1.60;;
4122;SDS011;2075;51.062;6.920;2023-07-20T10:09:19;2.67;;;2.40;;
4122;SDS011;2075;51.062;6.920;2023-07-20T10:12:08;1.70;;;1.60;;
4122;SDS011;2075;51.062;6.920;2023-07-20T10:14:58;2.87;;;1.60;;
4122;SDS011;2075;51.062;6.920;2023-07-20T10:17:59;1.53;;;1.53;;
4122;SDS011;2075;51.062;6.920;2023-07-20T10:20:50;2.50;;;1.50;;
4122;SDS011;2075;51.062;6.920;2023-07-20T10:23:39;1.63;;;1.53;;
4122;SDS011;2075;51.062;6.920;2023-07-20T10:26:25;1.80;;;1.70;;
4122;SDS011;2075;51.062;6.920;2023-07-20T10:29:11;1.50;;;1.40;;
4122;SDS011;2075;51.062;6.920;2023-07-20T10:31:57;1.83;;;1.73;;
4122;SDS011;2075;51.062;6.920;2023-07-20T10:34:49;1.60;;;1.60;;
4122;SDS011;2075;51.062;6.920;2023-07-20T10:37:53;1.63;;;1.53;;
4122;SDS011;2075;51.062;6.920;2023-07-20T10:40:40;1.73;;;1.63;;
4122;SDS011;2075;51.062;6.920;2023-07-20T10:43:25;1.77;;;1.50;;
4122;SDS011;2075;51.062;6.920;2023-07-20T10:46:11;1.90;;;1.80;;
4122;SDS011;2075;51.062;6.920;2023-07-20T10:49:00;1.50;;;1.40;;
4122;SDS011;2075;51.062;6.920;2023-07-20T10:51:47;1.70;;;1.60;;
4122;SDS011;2075;51.062;6.920;2023-07-20T10:58:07;1.80;;;1.70;;
4122;SDS011;2075;51.062;6.920;2023-07-20T11:00:57;1.50;;;1.40;;
4122;SDS011;2075;51.062;6.920;2023-07-20T11:03:48;3.33;;;2.40;;
4122;SDS011;2075;51.062;6.920;2023-07-20T11:06:35;1.83;;;1.20;;
4122;SDS011;2075;51.062;6.920;2023-07-20T11:09:22;1.10;;;1.10;;
4122;SDS011;2075;51.062;6.920;2023-07-20T11:12:11;5.27;;;1.57;;
4122;SDS011;2075;51.062;6.920;2023-07-20T11:14:58;3.30;;;1.77;;
4122;SDS011;2075;51.062;6.920;2023-07-20T11:17:44;1.47;;;1.33;;
4122;SDS011;2075;51.062;6.920;2023-07-20T11:20:29;1.97;;;1.87;;
4122;SDS011;2075;51.062;6.920;2023-07-20T11:23:15;1.20;;;1.20;;
4122;SDS011;2075;51.062;6.920;2023-07-20T11:26:01;1.30;;;1.30;;
4122;SDS011;2075;51.062;6.920;2023-07-20T11:28:50;1.50;;;1.40;;
4122;SDS011;2075;51.062;6.920;2023-07-20T11:31:37;2.20;;;1.43;;
4122;SDS011;2075;51.062;6.920;2023-07-20T11:34:22;1.20;;;1.20;;
4122;SDS011;2075;51.062;6.920;2023-07-20T11:37:08;1.40;;;1.40;;
4122;SDS011;2075;51.062;6.920;2023-07-20T11:39:55;1.30;;;1.20;;
4122;SDS011;2075;51.062;6.920;2023-07-20T11:42:41;1.47;;;1.47;;
4122;SDS011;2075;51.062;6.920;2023-07-20T11:45:30;1.77;;;1.30;;
4122;SDS011;2075;51.062;6.920;2023-07-20T11:48:17;1.37;;;1.23;;
4122;SDS011;2075;51.062;6.920;2023-07-20T11:51:03;1.70;;;1.60;;
4122;SDS011;2075;51.062;6.920;2023-07-20T11:53:49;1.50;;;1.40;;
4122;SDS011;2075;51.062;6.920;2023-07-20T11:56:34;1.43;;;1.33;;
4122;SDS011;2075;51.062;6.920;2023-07-20T11:59:20;1.70;;;1.60;;
4122;SDS011;2075;51.062;6.920;2023-07-20T12:02:07;4.03;;;2.47;;
4122;SDS011;2075;51.062;6.920;2023-07-20T12:04:53;1.30;;;1.30;;
4122;SDS011;2075;51.062;6.920;2023-07-20T12:07:39;3.00;;;2.80;;
4122;SDS011;2075;51.062;6.920;2023-07-20T12:10:25;1.57;;;1.50;;
4122;SDS011;2075;51.062;6.920;2023-07-20T12:13:11;2.30;;;1.40;;
4122;SDS011;2075;51.062;6.920;2023-07-20T12:15:57;2.60;;;1.40;;
4122;SDS011;2075;51.062;6.920;2023-07-20T12:18:53;3.33;;;1.40;;
4122;SDS011;2075;51.062;6.920;2023-07-20T12:21:44;1.70;;;1.60;;
4122;SDS011;2075;51.062;6.920;2023-07-20T12:24:30;1.73;;;1.63;;
4122;SDS011;2075;51.062;6.920;2023-07-20T12:27:15;2.20;;;1.30;;
4122;SDS011;2075;51.062;6.920;2023-07-20T12:30:01;1.93;;;1.80;;
4122;SDS011;2075;51.062;6.920;2023-07-20T12:32:48;2.40;;;1.77;;
4122;SDS011;2075;51.062;6.920;2023-07-20T12:35:35;1.30;;;1.30;;
4122;SDS011;2075;51.062;6.920;2023-07-20T12:38:20;6.93;;;5.70;;
4122;SDS011;2075;51.062;6.920;2023-07-20T12:41:06;1.93;;;1.83;;
4122;SDS011;2075;51.062;6.920;2023-07-20T12:43:51;1.50;;;1.40;;
4122;SDS011;2075;51.062;6.920;2023-07-20T12:46:37;1.67;;;1.57;;
4122;SDS011;2075;51.062;6.920;2023-07-20T12:49:23;1.30;;;1.30;;
4122;SDS011;2075;51.062;6.920;2023-07-20T12:52:09;1.20;;;1.20;;
4122;SDS011;2075;51.062;6.920;2023-07-20T12:54:55;1.27;;;1.23;;
4122;SDS011;2075;51.062;6.920;2023-07-20T12:57:40;1.47;;;1.40;;
4122;SDS011;2075;51.062;6.920;2023-07-20T13:00:26;1.23;;;1.23;;
4122;SDS011;2075;51.062;6.920;2023-07-20T13:03:11;1.30;;;1.30;;
4122;SDS011;2075;51.062;6.920;2023-07-20T13:05:56;1.30;;;1.30;;
4122;SDS011;2075;51.062;6.920;2023-07-20T13:08:43;1.50;;;1.40;;
4122;SDS011;2075;51.062;6.920;2023-07-20T13:11:28;1.53;;;1.43;;
4122;SDS011;2075;51.062;6.920;2023-07-20T13:14:14;3.87;;;1.60;;
4122;SDS011;2075;51.062;6.920;2023-07-20T13:17:00;2.20;;;1.30;;
4122;SDS011;2075;51.062;6.920;2023-07-20T13:19:46;3.60;;;1.63;;
4122;SDS011;2075;51.062;6.920;2023-07-20T13:22:31;2.03;;;1.90;;
4122;SDS011;2075;51.062;6.920;2023-07-20T13:25:19;1.67;;;1.60;;
4122;SDS011;2075;51.062;6.920;2023-07-20T13:28:04;1.40;;;1.40;;
4122;SDS011;2075;51.062;6.920;2023-07-20T13:30:50;1.73;;;1.10;;
4122;SDS011;2075;51.062;6.920;2023-07-20T13:33:36;1.30;;;1.30;;
4122;SDS011;2075;51.062;6.920;2023-07-20T13:36:22;1.63;;;1.47;;
4122;SDS011;2075;51.062;6.920;2023-07-20T13:39:09;3.57;;;1.60;;
4122;SDS011;2075;51.062;6.920;2023-07-20T13:41:56;7.50;;;1.63;;
4122;SDS011;2075;51.062;6.920;2023-07-20T13:44:41;1.27;;;1.27;;
4122;SDS011;2075;51.062;6.920;2023-07-20T13:47:27;1.40;;;1.40;;
4122;SDS011;2075;51.062;6.920;2023-07-20T13:50:13;2.30;;;1.30;;
4122;SDS011;2075;51.062;6.920;2023-07-20T13:53:03;1.23;;;1.23;;
4122;SDS011;2075;51.062;6.920;2023-07-20T13:55:49;2.57;;;1.27;;
4122;SDS011;2075;51.062;6.920;2023-07-20T13:58:38;1.33;;;1.23;;
4122;SDS011;2075;51.062;6.920;2023-07-20T14:01:24;1.40;;;1.30;;
4122;SDS011;2075;51.062;6.920;2023-07-20T14:04:17;1.57;;;1.57;;
4122;SDS011;2075;51.062;6.920;2023-07-20T14:07:03;1.67;;;1.57;;
4122;SDS011;2075;51.062;6.920;2023-07-20T14:09:49;3.07;;;1.50;;
4122;SDS011;2075;51.062;6.920;2023-07-20T14:12:35;1.43;;;1.43;;
4122;SDS011;2075;51.062;6.920;2023-07-20T14:15:22;1.50;;;1.50;;
4122;SDS011;2075;51.062;6.920;2023-07-20T14:18:08;1.53;;;1.40;;
4122;SDS011;2075;51.062;6.920;2023-07-20T14:20:54;1.93;;;1.53;;
4122;SDS011;2075;51.062;6.920;2023-07-20T14:23:40;6.83;;;1.77;;
4122;SDS011;2075;51.062;6.920;2023-07-20T14:26:26;8.20;;;2.17;;
4122;SDS011;2075;51.062;6.920;2023-07-20T14:29:13;4.67;;;1.43;;
4122;SDS011;2075;51.062;6.920;2023-07-20T14:32:06;1.67;;;1.57;;
4122;SDS011;2075;51.062;6.920;2023-07-20T14:35:09;3.43;;;2.00;;
4122;SDS011;2075;51.062;6.920;2023-07-20T14:38:09;2.50;;;1.67;;
4122;SDS011;2075;51.062;6.920;2023-07-20T14:41:38;3.80;;;1.47;;
4122;SDS011;2075;51.062;6.920;2023-07-20T14:44:26;1.37;;;1.20;;
4122;SDS011;2075;51.062;6.920;2023-07-20T14:47:17;1.27;;;1.27;;
4122;SDS011;2075;51.062;6.920;2023-07-20T14:50:05;1.30;;;1.20;;
4122;SDS011;2075;51.062;6.920;2023-07-20T14:53:00;1.40;;;1.30;;
4122;SDS011;2075;51.062;6.920;2023-07-20T14:55:47;1.83;;;1.43;;
4122;SDS011;2075;51.062;6.920;2023-07-20T14:58:38;1.83;;;1.50;;
4122;SDS011;2075;51.062;6.920;2023-07-20T15:01:39;1.70;;;1.60;;
4122;SDS011;2075;51.062;6.920;2023-07-20T15:04:44;1.70;;;1.70;;
4122;SDS011;2075;51.062;6.920;2023-07-20T15:07:40;1.67;;;1.57;;
4122;SDS011;2075;51.062;6.920;2023-07-20T15:16:00;1.77;;;1.60;;
4122;SDS011;2075;51.062;6.920;2023-07-20T15:18:46;1.70;;;1.60;;
4122;SDS011;2075;51.062;6.920;2023-07-20T15:21:33;1.70;;;1.60;;
4122;SDS011;2075;51.062;6.920;2023-07-20T15:24:19;2.07;;;1.67;;
4122;SDS011;2075;51.062;6.920;2023-07-20T15:27:05;1.80;;;1.70;;
4122;SDS011;2075;51.062;6.920;2023-07-20T15:29:51;4.53;;;1.67;;
4122;SDS011;2075;51.062;6.920;2023-07-20T15:32:38;1.53;;;1.50;;
4122;SDS011;2075;51.062;6.920;2023-07-20T15:35:35;1.53;;;1.43;;
4122;SDS011;2075;51.062;6.920;2023-07-20T15:41:23;1.73;;;1.50;;
4122;SDS011;2075;51.062;6.920;2023-07-20T15:44:17;1.50;;;1.40;;
4122;SDS011;2075;51.062;6.920;2023-07-20T15:47:08;1.80;;;1.70;;
4122;SDS011;2075;51.062;6.920;2023-07-20T15:49:54;1.87;;;1.77;;
4122;SDS011;2075;51.062;6.920;2023-07-20T15:52:40;1.63;;;1.53;;
4122;SDS011;2075;51.062;6.920;2023-07-20T15:55:25;1.87;;;1.60;;
4122;SDS011;2075;51.062;6.920;2023-07-20T15:58:13;1.63;;;1.53;;
4122;SDS011;2075;51.062;6.920;2023-07-20T16:00:59;1.67;;;1.57;;
4122;SDS011;2075;51.062;6.920;2023-07-20T16:03:45;1.77;;;1.30;;
4122;SDS011;2075;51.062;6.920;2023-07-20T16:06:31;1.70;;;1.60;;
4122;SDS011;2075;51.062;6.920;2023-07-20T16:09:19;1.50;;;1.47;;
4122;SDS011;2075;51.062;6.920;2023-07-20T16:12:05;2.00;;;1.90;;
4122;SDS011;2075;51.062;6.920;2023-07-20T16:14:53;2.00;;;1.93;;
4122;SDS011;2075;51.062;6.920;2023-07-20T16:17:39;2.40;;;1.80;;
4122;SDS011;2075;51.062;6.920;2023-07-20T16:20:24;3.93;;;1.93;;
4122;SDS011;2075;51.062;6.920;2023-07-20T16:23:10;1.47;;;1.47;;
4122;SDS011;2075;51.062;6.920;2023-07-20T16:25:56;1.70;;;1.60;;
4122;SDS011;2075;51.062;6.920;2023-07-20T16:28:41;1.50;;;1.50;;
4122;SDS011;2075;51.062;6.920;2023-07-20T16:31:30;1.40;;;1.40;;
4122;SDS011;2075;51.062;6.920;2023-07-20T16:34:16;1.50;;;1.50;;
4122;SDS011;2075;51.062;6.920;2023-07-20T16:37:01;3.83;;;2.00;;
4122;SDS011;2075;51.062;6.920;2023-07-20T16:39:49;4.77;;;2.10;;
4122;SDS011;2075;51.062;6.920;2023-07-20T16:42:35;1.60;;;1.50;;
4122;SDS011;2075;51.062;6.920;2023-07-20T16:45:20;1.73;;;1.63;;
4122;SDS011;2075;51.062;6.920;2023-07-20T16:48:07;1.70;;;1.60;;
4122;SDS011;2075;51.062;6.920;2023-07-20T16:50:53;2.10;;;1.50;;
4122;SDS011;2075;51.062;6.920;2023-07-20T16:53:38;1.83;;;1.73;;
4122;SDS011;2075;51.062;6.920;2023-07-20T16:56:24;1.50;;;1.40;;
4122;SDS011;2075;51.062;6.920;2023-07-20T16:59:09;2.07;;;1.60;;
4122;SDS011;2075;51.062;6.920;2023-07-20T17:01:55;2.80;;;1.80;;
4122;SDS011;2075;51.062;6.920;2023-07-20T17:04:41;1.90;;;1.80;;
4122;SDS011;2075;51.062;6.920;2023-07-20T17:07:27;5.60;;;1.77;;
4122;SDS011;2075;51.062;6.920;2023-07-20T17:10:12;1.43;;;1.40;;
4122;SDS011;2075;51.062;6.920;2023-07-20T17:13:00;1.60;;;1.50;;
4122;SDS011;2075;51.062;6.920;2023-07-20T17:15:47;2.40;;;2.27;;
4122;SDS011;2075;51.062;6.920;2023-07-20T17:18:34;1.83;;;1.73;;
4122;SDS011;2075;51.062;6.920;2023-07-20T17:21:22;1.60;;;1.50;;
4122;SDS011;2075;51.062;6.920;2023-07-20T17:24:16;1.50;;;1.43;;
4122;SDS011;2075;51.062;6.920;2023-07-20T17:27:03;2.03;;;1.90;;
4122;SDS011;2075;51.062;6.920;2023-07-20T17:29:50;3.30;;;1.70;;
4122;SDS011;2075;51.062;6.920;2023-07-20T17:32:35;1.60;;;1.50;;
4122;SDS011;2075;51.062;6.920;2023-07-20T17:35:21;1.70;;;1.60;;
4122;SDS011;2075;51.062;6.920;2023-07-20T17:38:08;1.90;;;1.80;;
4122;SDS011;2075;51.062;6.920;2023-07-20T17:40:53;1.70;;;1.60;;
4122;SDS011;2075;51.062;6.920;2023-07-20T17:43:39;1.57;;;1.47;;
4122;SDS011;2075;51.062;6.920;2023-07-20T17:46:36;1.63;;;1.63;;
4122;SDS011;2075;51.062;6.920;2023-07-20T17:49:24;1.37;;;1.37;;
4122;SDS011;2075;51.062;6.920;2023-07-20T17:52:10;1.90;;;1.80;;
4122;SDS011;2075;51.062;6.920;2023-07-20T17:54:59;2.40;;;1.50;;
4122;SDS011;2075;51.062;6.920;2023-07-20T17:57:44;1.77;;;1.67;;
4122;SDS011;2075;51.062;6.920;2023-07-20T18:00:30;1.50;;;1.50;;
4122;SDS011;2075;51.062;6.920;2023-07-20T18:03:16;2.07;;;1.43;;
4122;SDS011;2075;51.062;6.920;2023-07-20T18:06:05;1.40;;;1.40;;